Time;durP1;ratioP1;P1;durP2;ratioP2;P2;SDS_P1;SDS_P2;PMS_P1;PMS_P2;Temp;Humidity;BMP_temperature;BMP_pressure;BME280_temperature;BME280_humidity;BME280_pressure;Samples;Min_cycle;Max_cycle;Signal;HPM_P1;HPM_P2
2022/12/20 00:01:53;;;;;;;2.53;2.27;;;;;;;;;;5067703;28;20202;-63
2022/12/20 00:04:20;;;;;;;5.10;2.90;;;;;;;;;;5070159;28;20245;-63
2022/12/20 00:06:47;;;;;;;3.80;2.60;;;;;;;;;;5070679;28;20199;-62
2022/12/20 00:09:14;;;;;;;3.13;2.50;;;;;;;;;;5070109;28;20209;-62
2022/12/20 00:11:41;;;;;;;4.97;2.90;;;;;;;;;;5070023;28;20198;-63
2022/12/20 00:14:09;;;;;;;2.67;2.40;;;;;;;;;;5071011;28;20195;-62
2022/12/20 00:16:36;;;;;;;4.07;2.43;;;;;;;;;;5072545;28;20213;-63
2022/12/20 00:19:06;;;;;;;4.83;2.70;;;;;;;;;;5068623;28;20199;-62
2022/12/20 00:21:34;;;;;;;4.67;2.30;;;;;;;;;;5072494;28;20208;-63
2022/12/20 00:24:01;;;;;;;2.50;2.30;;;;;;;;;;5071957;28;20216;-62
2022/12/20 00:26:29;;;;;;;3.07;2.57;;;;;;;;;;5070940;28;20214;-63
2022/12/20 00:28:56;;;;;;;4.27;2.60;;;;;;;;;;5067320;28;20202;-62
2022/12/20 00:31:24;;;;;;;5.00;2.80;;;;;;;;;;5072881;28;20202;-59
2022/12/20 00:33:52;;;;;;;4.63;2.80;;;;;;;;;;5068344;28;20198;-58
2022/12/20 00:36:21;;;;;;;3.10;2.63;;;;;;;;;;5070613;28;20211;-63
2022/12/20 00:38:49;;;;;;;3.07;2.30;;;;;;;;;;5070496;28;20198;-58
2022/12/20 00:41:17;;;;;;;3.80;2.70;;;;;;;;;;5068344;28;20203;-62
2022/12/20 00:43:44;;;;;;;4.47;2.80;;;;;;;;;;5066037;28;20201;-62
2022/12/20 00:46:12;;;;;;;3.90;2.53;;;;;;;;;;5067144;28;20214;-63
2022/12/20 00:48:40;;;;;;;3.70;2.30;;;;;;;;;;5062400;28;21568;-62
2022/12/20 00:51:08;;;;;;;3.83;2.77;;;;;;;;;;5066217;28;20199;-59
2022/12/20 00:53:36;;;;;;;3.13;2.73;;;;;;;;;;5070355;28;20195;-63
2022/12/20 00:56:04;;;;;;;3.40;2.60;;;;;;;;;;5065931;28;20199;-62
2022/12/20 00:58:32;;;;;;;3.53;2.77;;;;;;;;;;5067695;28;20214;-62
2022/12/20 01:00:59;;;;;;;6.93;2.50;;;;;;;;;;5066318;28;20203;-59
2022/12/20 01:03:27;;;;;;;3.83;2.60;;;;;;;;;;5066571;28;20222;-62
2022/12/20 01:05:55;;;;;;;3.37;2.50;;;;;;;;;;5069222;28;20259;-63
2022/12/20 01:08:22;;;;;;;3.73;2.50;;;;;;;;;;5070930;28;20207;-63
2022/12/20 01:10:59;;;;;;;4.53;2.67;;;;;;;;;;5070290;28;20195;-59
2022/12/20 01:13:27;;;;;;;3.33;2.40;;;;;;;;;;5065241;28;20207;-59
2022/12/20 01:15:54;;;;;;;2.97;2.30;;;;;;;;;;5069083;28;20203;-59
2022/12/20 01:18:21;;;;;;;3.07;2.60;;;;;;;;;;5066842;28;20202;-59
2022/12/20 01:20:48;;;;;;;2.27;2.07;;;;;;;;;;5067307;28;20198;-59
2022/12/20 01:23:15;;;;;;;4.83;2.77;;;;;;;;;;5065479;28;20195;-60
2022/12/20 01:25:42;;;;;;;3.80;2.43;;;;;;;;;;5067756;28;20222;-60
2022/12/20 01:28:10;;;;;;;2.73;2.17;;;;;;;;;;5064923;28;20210;-60
2022/12/20 01:30:40;;;;;;;3.53;2.70;;;;;;;;;;5069328;28;20203;-60
2022/12/20 01:33:07;;;;;;;3.27;2.57;;;;;;;;;;5066590;28;20213;-61
2022/12/20 01:35:34;;;;;;;3.97;2.37;;;;;;;;;;5068044;28;20204;-59
2022/12/20 01:38:01;;;;;;;2.63;2.03;;;;;;;;;;5065699;28;20256;-60
2022/12/20 01:40:28;;;;;;;4.33;2.37;;;;;;;;;;5069375;28;20199;-59
2022/12/20 01:42:56;;;;;;;4.50;2.47;;;;;;;;;;5063456;28;20214;-59
2022/12/20 01:45:27;;;;;;;3.93;2.13;;;;;;;;;;5067025;28;20207;-58
2022/12/20 01:47:54;;;;;;;3.03;2.30;;;;;;;;;;5065876;28;20203;-59
2022/12/20 01:50:22;;;;;;;5.13;2.40;;;;;;;;;;5068634;28;20281;-59
2022/12/20 01:52:49;;;;;;;6.43;2.30;;;;;;;;;;5067534;28;20478;-58
2022/12/20 01:55:18;;;;;;;2.53;2.23;;;;;;;;;;5072804;28;20258;-59
2022/12/20 01:57:47;;;;;;;3.47;2.23;;;;;;;;;;5069788;28;20264;-59
2022/12/20 02:00:16;;;;;;;3.83;2.63;;;;;;;;;;5068243;28;20198;-59
2022/12/20 02:02:44;;;;;;;2.93;2.37;;;;;;;;;;5074130;28;20202;-58
2022/12/20 02:05:13;;;;;;;2.80;2.17;;;;;;;;;;5072669;28;20226;-58
2022/12/20 02:07:41;;;;;;;3.07;2.20;;;;;;;;;;5071564;28;20207;-59
2022/12/20 02:10:09;;;;;;;2.90;2.43;;;;;;;;;;5066853;28;20202;-59
2022/12/20 02:12:39;;;;;;;4.47;2.40;;;;;;;;;;5069402;28;20194;-58
2022/12/20 02:15:15;;;;;;;3.67;2.13;;;;;;;;;;5071986;28;20195;-59
2022/12/20 02:17:49;;;;;;;3.97;2.17;;;;;;;;;;5072397;28;20199;-60
2022/12/20 02:20:35;;;;;;;3.87;2.30;;;;;;;;;;5073203;28;20195;-58
2022/12/20 02:23:14;;;;;;;4.77;2.33;;;;;;;;;;5070110;28;20211;-58
2022/12/20 02:25:47;;;;;;;3.83;2.47;;;;;;;;;;5071963;28;20211;-59
2022/12/20 02:28:19;;;;;;;2.60;2.10;;;;;;;;;;5073561;28;20194;-59
2022/12/20 02:30:49;;;;;;;2.53;2.00;;;;;;;;;;5067737;28;20203;-58
2022/12/20 02:33:16;;;;;;;2.77;2.10;;;;;;;;;;5072596;28;20202;-59
2022/12/20 02:35:43;;;;;;;2.67;1.80;;;;;;;;;;5072270;28;20195;-59
2022/12/20 02:38:25;;;;;;;2.80;2.30;;;;;;;;;;5067871;28;20198;-60
2022/12/20 02:40:54;;;;;;;2.30;2.10;;;;;;;;;;5070744;28;20199;-59
2022/12/20 02:46:05;;;;;;;2.70;1.90;;;;;;;;;;5066640;28;20226;-59
2022/12/20 02:48:33;;;;;;;3.70;2.07;;;;;;;;;;5070606;28;20213;-58
2022/12/20 02:51:02;;;;;;;2.70;2.00;;;;;;;;;;5070903;28;20202;-60
2022/12/20 02:53:29;;;;;;;3.70;2.20;;;;;;;;;;5071677;28;20199;-59
2022/12/20 02:56:00;;;;;;;3.00;2.07;;;;;;;;;;5069376;28;20195;-59
2022/12/20 02:58:29;;;;;;;3.27;2.10;;;;;;;;;;5068507;28;20209;-59
2022/12/20 03:00:57;;;;;;;2.63;2.00;;;;;;;;;;5066851;28;20199;-59
2022/12/20 03:03:26;;;;;;;2.60;2.00;;;;;;;;;;5071147;28;20203;-59
2022/12/20 03:05:54;;;;;;;2.30;1.90;;;;;;;;;;5070665;28;20231;-59
2022/12/20 03:08:21;;;;;;;3.37;2.07;;;;;;;;;;5066899;28;20198;-60
2022/12/20 03:10:48;;;;;;;3.30;2.17;;;;;;;;;;5069634;28;20206;-59
2022/12/20 03:13:15;;;;;;;3.13;2.13;;;;;;;;;;5069147;28;20199;-59
2022/12/20 03:15:43;;;;;;;2.27;1.93;;;;;;;;;;5071019;28;20228;-61
2022/12/20 03:18:10;;;;;;;2.40;1.90;;;;;;;;;;5072289;28;20195;-58
2022/12/20 03:20:38;;;;;;;2.00;1.80;;;;;;;;;;5067079;28;20207;-60
2022/12/20 03:23:06;;;;;;;2.53;2.10;;;;;;;;;;5069308;28;20202;-58
2022/12/20 03:25:33;;;;;;;2.30;1.97;;;;;;;;;;5069152;28;20230;-60
2022/12/20 03:28:00;;;;;;;1.97;1.70;;;;;;;;;;5068912;28;20207;-59
2022/12/20 03:30:27;;;;;;;2.40;2.00;;;;;;;;;;5066650;28;20206;-59
2022/12/20 03:32:54;;;;;;;2.23;1.90;;;;;;;;;;5069920;28;20210;-59
2022/12/20 03:35:22;;;;;;;3.87;1.70;;;;;;;;;;5064395;28;20192;-60
2022/12/20 03:37:50;;;;;;;3.03;1.80;;;;;;;;;;5067371;28;20202;-59
2022/12/20 03:40:17;;;;;;;3.50;1.70;;;;;;;;;;5069731;28;20195;-61
2022/12/20 03:42:44;;;;;;;4.30;2.17;;;;;;;;;;5066277;28;20213;-59
2022/12/20 03:45:12;;;;;;;2.33;1.90;;;;;;;;;;5068268;28;20253;-60
2022/12/20 03:47:39;;;;;;;3.50;2.10;;;;;;;;;;5067234;28;20206;-61
2022/12/20 03:50:07;;;;;;;3.17;2.10;;;;;;;;;;5070126;28;20203;-59
2022/12/20 03:52:34;;;;;;;2.40;2.20;;;;;;;;;;5065808;28;20206;-60
2022/12/20 03:55:03;;;;;;;2.80;1.90;;;;;;;;;;5069900;28;20214;-60
2022/12/20 03:57:30;;;;;;;2.17;1.80;;;;;;;;;;5069704;28;20198;-59
2022/12/20 03:59:57;;;;;;;2.40;1.97;;;;;;;;;;5068497;28;20229;-59
2022/12/20 04:02:24;;;;;;;3.07;1.70;;;;;;;;;;5069336;28;20207;-59
2022/12/20 04:04:52;;;;;;;1.90;1.70;;;;;;;;;;5066887;28;20242;-61
2022/12/20 04:07:19;;;;;;;3.60;2.00;;;;;;;;;;5069161;28;20223;-60
2022/12/20 04:09:46;;;;;;;2.70;1.70;;;;;;;;;;5071891;28;20214;-60
2022/12/20 04:12:14;;;;;;;2.70;1.83;;;;;;;;;;5066095;28;20199;-60
2022/12/20 04:14:41;;;;;;;3.67;2.07;;;;;;;;;;5068973;28;20203;-59
2022/12/20 04:17:09;;;;;;;2.03;1.77;;;;;;;;;;5068532;28;20202;-59
2022/12/20 04:19:36;;;;;;;2.20;1.70;;;;;;;;;;5066397;28;20202;-59
2022/12/20 04:22:03;;;;;;;2.57;1.80;;;;;;;;;;5069503;28;20199;-60
2022/12/20 04:24:30;;;;;;;2.43;1.93;;;;;;;;;;5070284;28;20214;-59
2022/12/20 04:26:57;;;;;;;1.93;1.73;;;;;;;;;;5064828;28;20218;-60
2022/12/20 04:29:26;;;;;;;2.40;1.80;;;;;;;;;;5067805;28;20210;-58
2022/12/20 04:31:53;;;;;;;3.67;1.80;;;;;;;;;;5066654;28;20199;-60
2022/12/20 04:34:20;;;;;;;3.47;1.80;;;;;;;;;;5069048;28;20202;-59
2022/12/20 04:36:47;;;;;;;4.07;2.00;;;;;;;;;;5065591;28;20214;-60
2022/12/20 04:39:14;;;;;;;2.87;1.70;;;;;;;;;;5067127;28;20202;-61
2022/12/20 04:41:41;;;;;;;2.70;1.80;;;;;;;;;;5066893;28;20209;-60
2022/12/20 04:44:08;;;;;;;3.60;1.80;;;;;;;;;;5069062;28;20232;-59
2022/12/20 04:46:37;;;;;;;2.23;1.70;;;;;;;;;;5066757;28;20215;-62
2022/12/20 04:49:04;;;;;;;3.00;1.70;;;;;;;;;;5069647;28;20199;-64
2022/12/20 04:51:31;;;;;;;3.50;1.87;;;;;;;;;;5068452;28;20198;-60
2022/12/20 04:53:57;;;;;;;2.20;1.70;;;;;;;;;;5064677;28;20352;-60
2022/12/20 04:56:26;;;;;;;2.67;1.70;;;;;;;;;;5069945;28;20236;-65
2022/12/20 04:58:54;;;;;;;2.50;1.90;;;;;;;;;;5069330;28;20226;-60
2022/12/20 05:01:21;;;;;;;3.20;1.90;;;;;;;;;;5068566;28;20199;-65
2022/12/20 05:03:50;;;;;;;2.73;1.70;;;;;;;;;;5070579;28;20195;-59
2022/12/20 05:06:17;;;;;;;3.37;1.90;;;;;;;;;;5028721;28;20227;-59
2022/12/20 05:08:45;;;;;;;4.33;1.80;;;;;;;;;;5025848;28;20219;-65
2022/12/20 05:11:12;;;;;;;1.97;1.77;;;;;;;;;;5026672;28;20211;-65
2022/12/20 05:13:39;;;;;;;3.23;1.67;;;;;;;;;;5024452;28;20192;-65
2022/12/20 05:16:06;;;;;;;3.30;1.90;;;;;;;;;;5026556;28;20212;-66
2022/12/20 05:18:33;;;;;;;5.47;1.80;;;;;;;;;;5024315;28;20208;-65
2022/12/20 05:26:33;;;;;;;3.27;1.97;;;;;;;;;;5029738;28;20339;-65
2022/12/20 05:29:00;;;;;;;4.90;1.83;;;;;;;;;;5027765;28;20193;-66
2022/12/20 05:31:27;;;;;;;3.60;1.70;;;;;;;;;;5030372;28;20227;-65
2022/12/20 05:33:55;;;;;;;2.00;1.80;;;;;;;;;;5029557;28;20204;-66
2022/12/20 05:36:23;;;;;;;3.27;1.90;;;;;;;;;;5028099;28;20220;-66
2022/12/20 05:38:50;;;;;;;3.70;1.70;;;;;;;;;;5026636;28;20200;-64
2022/12/20 05:41:18;;;;;;;4.20;1.70;;;;;;;;;;5024373;28;20210;-65
2022/12/20 05:43:45;;;;;;;2.23;1.77;;;;;;;;;;5028322;28;20232;-66
2022/12/20 05:46:12;;;;;;;2.30;1.60;;;;;;;;;;5028336;28;20223;-66
2022/12/20 05:48:39;;;;;;;2.33;1.50;;;;;;;;;;5023988;28;20205;-66
2022/12/20 05:51:06;;;;;;;3.90;1.80;;;;;;;;;;5016998;28;20232;-65
2022/12/20 05:53:35;;;;;;;3.13;1.80;;;;;;;;;;5028872;28;20412;-65
2022/12/20 05:56:02;;;;;;;3.47;1.70;;;;;;;;;;5028772;28;20211;-65
2022/12/20 05:58:29;;;;;;;4.17;1.77;;;;;;;;;;5024406;28;20208;-65
2022/12/20 06:00:56;;;;;;;2.47;1.90;;;;;;;;;;5024435;28;20196;-65
2022/12/20 06:03:24;;;;;;;2.80;1.40;;;;;;;;;;5023508;28;20398;-66
2022/12/20 06:05:51;;;;;;;3.70;1.73;;;;;;;;;;5062620;28;20230;-66
2022/12/20 06:08:20;;;;;;;2.27;1.47;;;;;;;;;;5059895;28;20382;-65
2022/12/20 06:10:48;;;;;;;3.00;1.70;;;;;;;;;;5068250;28;20207;-65
2022/12/20 06:13:16;;;;;;;2.07;1.47;;;;;;;;;;5062701;28;20201;-65
2022/12/20 06:15:43;;;;;;;2.47;1.63;;;;;;;;;;5068388;28;20202;-64
2022/12/20 06:18:11;;;;;;;2.43;1.50;;;;;;;;;;5062811;28;20210;-65
2022/12/20 06:20:38;;;;;;;2.23;1.63;;;;;;;;;;5067297;28;20233;-65
2022/12/20 06:23:06;;;;;;;2.83;1.40;;;;;;;;;;5067951;28;20199;-64
2022/12/20 06:25:33;;;;;;;1.53;1.40;;;;;;;;;;5064357;28;20207;-65
2022/12/20 06:28:01;;;;;;;2.57;1.43;;;;;;;;;;5069241;28;20214;-64
2022/12/20 06:30:28;;;;;;;4.23;1.70;;;;;;;;;;5070600;28;20218;-65
2022/12/20 06:32:56;;;;;;;2.30;1.37;;;;;;;;;;5069098;28;20199;-65
2022/12/20 06:35:23;;;;;;;2.33;1.40;;;;;;;;;;5069558;28;20199;-65
2022/12/20 06:37:50;;;;;;;1.40;1.30;;;;;;;;;;5066535;28;20257;-65
2022/12/20 06:40:17;;;;;;;2.73;1.40;;;;;;;;;;5064810;28;20214;-66
2022/12/20 06:42:44;;;;;;;2.90;1.27;;;;;;;;;;5061600;28;20233;-64
2022/12/20 06:45:13;;;;;;;2.70;1.50;;;;;;;;;;5072668;28;20202;-63
2022/12/20 06:47:40;;;;;;;2.17;1.50;;;;;;;;;;5073888;28;20223;-64
2022/12/20 06:50:08;;;;;;;4.43;1.60;;;;;;;;;;5067366;28;20230;-63
2022/12/20 06:52:35;;;;;;;1.73;1.40;;;;;;;;;;5069855;28;20210;-63
2022/12/20 06:55:02;;;;;;;3.27;1.50;;;;;;;;;;5072822;28;20198;-63
2022/12/20 06:57:29;;;;;;;1.70;1.40;;;;;;;;;;5073726;28;20210;-63
2022/12/20 06:59:56;;;;;;;3.10;1.60;;;;;;;;;;5067949;28;20230;-65
2022/12/20 07:02:25;;;;;;;2.47;1.30;;;;;;;;;;5071016;28;20203;-64
2022/12/20 07:04:52;;;;;;;4.13;1.30;;;;;;;;;;5067710;28;20238;-64
2022/12/20 07:07:19;;;;;;;2.90;2.27;;;;;;;;;;5068989;28;20325;-64
2022/12/20 07:09:46;;;;;;;1.70;1.60;;;;;;;;;;5069767;28;20203;-65
2022/12/20 07:12:13;;;;;;;2.30;1.33;;;;;;;;;;5068009;28;20203;-64
2022/12/20 07:14:40;;;;;;;1.60;1.50;;;;;;;;;;5071987;28;20221;-63
2022/12/20 07:17:07;;;;;;;1.90;1.50;;;;;;;;;;5071612;28;20198;-63
2022/12/20 07:19:36;;;;;;;1.70;1.50;;;;;;;;;;5068750;28;20206;-63
2022/12/20 07:22:04;;;;;;;5.13;1.40;;;;;;;;;;5070933;28;20207;-63
2022/12/20 07:24:31;;;;;;;1.97;1.50;;;;;;;;;;5063272;28;20297;-63
2022/12/20 07:29:29;;;;;;;1.43;1.33;;;;;;;;;;5072877;22;20326;-86
2022/12/20 07:31:56;;;;;;;2.40;1.80;;;;;;;;;;5072518;28;20206;-87
2022/12/20 07:34:24;;;;;;;2.23;1.30;;;;;;;;;;5068687;28;20279;-88
2022/12/20 07:36:53;;;;;;;2.77;1.50;;;;;;;;;;5070191;28;20231;-86
2022/12/20 07:39:20;;;;;;;2.63;1.47;;;;;;;;;;5072794;28;20203;-87
2022/12/20 07:41:48;;;;;;;4.07;1.50;;;;;;;;;;5074516;28;20210;-87
2022/12/20 07:44:15;;;;;;;1.90;1.43;;;;;;;;;;5074365;28;20297;-87
2022/12/20 07:46:42;;;;;;;2.73;1.57;;;;;;;;;;5074949;28;20222;-87
2022/12/20 07:49:10;;;;;;;4.67;1.30;;;;;;;;;;5074595;28;20207;-86
2022/12/20 07:51:38;;;;;;;3.10;1.50;;;;;;;;;;5074259;28;20187;-86
2022/12/20 07:54:09;;;;;;;2.07;1.50;;;;;;;;;;5069648;28;20202;-87
2022/12/20 07:56:39;;;;;;;2.53;1.70;;;;;;;;;;5074142;28;20207;-86
2022/12/20 07:59:07;;;;;;;2.50;1.70;;;;;;;;;;5073131;28;20198;-86
2022/12/20 08:01:34;;;;;;;1.60;1.43;;;;;;;;;;5066154;28;20261;-87
2022/12/20 08:04:04;;;;;;;2.40;1.83;;;;;;;;;;5066317;28;20269;-87
2022/12/20 08:06:32;;;;;;;2.63;1.63;;;;;;;;;;5057813;28;20214;-86
2022/12/20 08:09:01;;;;;;;2.67;1.70;;;;;;;;;;5065489;28;20198;-87
2022/12/20 08:11:30;;;;;;;1.77;1.43;;;;;;;;;;5065595;28;20199;-88
2022/12/20 08:13:58;;;;;;;3.43;1.53;;;;;;;;;;5063201;28;20203;-87
2022/12/20 08:16:27;;;;;;;3.10;1.63;;;;;;;;;;5067979;28;20283;-88
2022/12/20 08:18:57;;;;;;;1.60;1.50;;;;;;;;;;5069836;28;20229;-88
2022/12/20 08:21:27;;;;;;;4.63;1.67;;;;;;;;;;5061842;28;20201;-88
2022/12/20 08:23:55;;;;;;;4.10;1.57;;;;;;;;;;5070366;28;20249;-88
2022/12/20 08:26:23;;;;;;;1.37;1.20;;;;;;;;;;5065561;28;20207;-88
2022/12/20 08:28:52;;;;;;;4.17;1.77;;;;;;;;;;5068475;28;20214;-87
2022/12/20 08:31:19;;;;;;;2.63;1.50;;;;;;;;;;5066630;28;20258;-87
2022/12/20 08:33:47;;;;;;;3.77;1.60;;;;;;;;;;5072114;28;20198;-87
2022/12/20 08:36:14;;;;;;;1.83;1.37;;;;;;;;;;5072665;28;20190;-87
2022/12/20 08:38:42;;;;;;;2.57;1.40;;;;;;;;;;5073175;28;20203;-87
2022/12/20 08:41:10;;;;;;;3.53;1.60;;;;;;;;;;5072479;28;20218;-87
2022/12/20 08:43:38;;;;;;;2.83;1.40;;;;;;;;;;5077347;28;20231;-88
2022/12/20 08:46:07;;;;;;;2.27;1.63;;;;;;;;;;5069788;28;20291;-87
2022/12/20 08:48:34;;;;;;;1.40;1.30;;;;;;;;;;5065473;28;20273;-87
2022/12/20 08:51:02;;;;;;;1.60;1.40;;;;;;;;;;5072557;28;20195;-86
2022/12/20 08:53:30;;;;;;;3.63;1.60;;;;;;;;;;5072520;28;20190;-87
2022/12/20 08:56:04;;;;;;;2.40;1.40;;;;;;;;;;5070992;28;20195;-86
2022/12/20 08:58:31;;;;;;;5.00;1.43;;;;;;;;;;5062169;28;20295;-87
2022/12/20 09:01:00;;;;;;;2.10;1.33;;;;;;;;;;5070367;28;20237;-87
2022/12/20 09:03:29;;;;;;;3.63;1.60;;;;;;;;;;5061655;28;20206;-87
2022/12/20 09:05:57;;;;;;;2.80;1.60;;;;;;;;;;5060475;27;20325;-86
2022/12/20 09:08:24;;;;;;;4.30;1.70;;;;;;;;;;5073563;28;20333;-84
2022/12/20 09:10:51;;;;;;;2.70;1.40;;;;;;;;;;5069806;28;20286;-84
2022/12/20 09:13:20;;;;;;;1.70;1.60;;;;;;;;;;5071109;28;20195;-85
2022/12/20 09:15:47;;;;;;;2.30;1.60;;;;;;;;;;5072477;28;20195;-85
2022/12/20 09:18:14;;;;;;;3.10;1.60;;;;;;;;;;5066815;28;20228;-85
2022/12/20 09:20:45;;;;;;;2.43;1.60;;;;;;;;;;5071849;28;20195;-84
2022/12/20 09:23:13;;;;;;;4.23;1.60;;;;;;;;;;5066053;28;20190;-87
2022/12/20 09:25:44;;;;;;;4.63;1.77;;;;;;;;;;5067764;28;20195;-87
2022/12/20 09:28:14;;;;;;;2.47;1.57;;;;;;;;;;5066121;28;20261;-87
2022/12/20 09:30:41;;;;;;;2.33;1.50;;;;;;;;;;5068641;28;20231;-86
2022/12/20 09:33:08;;;;;;;2.63;1.33;;;;;;;;;;5064893;28;20194;-87
2022/12/20 09:35:35;;;;;;;2.67;1.50;;;;;;;;;;5070477;28;20248;-87
2022/12/20 09:38:04;;;;;;;3.23;1.50;;;;;;;;;;5072458;28;20210;-86
2022/12/20 09:40:37;;;;;;;2.50;1.50;;;;;;;;;;5066151;28;20203;-87
2022/12/20 09:43:10;;;;;;;4.97;1.50;;;;;;;;;;5063372;28;20191;-87
2022/12/20 09:45:39;;;;;;;2.37;1.50;;;;;;;;;;5066083;28;20281;-87
2022/12/20 09:48:11;;;;;;;2.53;1.50;;;;;;;;;;5070392;28;20203;-87
2022/12/20 09:50:42;;;;;;;3.40;1.40;;;;;;;;;;5072344;28;20294;-87
2022/12/20 09:53:21;;;;;;;4.73;1.63;;;;;;;;;;5068038;28;20274;-87
2022/12/20 09:55:55;;;;;;;3.53;1.53;;;;;;;;;;5065429;28;20198;-87
2022/12/20 09:58:31;;;;;;;3.03;1.27;;;;;;;;;;5063154;28;20235;-86
2022/12/20 10:03:58;;;;;;;3.47;1.60;;;;;;;;;;5072559;28;20199;-87
2022/12/20 10:06:34;;;;;;;3.03;1.53;;;;;;;;;;5065217;28;20209;-87
2022/12/20 10:09:08;;;;;;;7.50;1.77;;;;;;;;;;5071406;28;20219;-86
2022/12/20 10:11:53;;;;;;;2.13;1.60;;;;;;;;;;5061091;28;20198;-87
2022/12/20 10:14:34;;;;;;;3.00;1.60;;;;;;;;;;5065962;28;20221;-88
2022/12/20 10:17:09;;;;;;;5.87;1.67;;;;;;;;;;5065323;28;20241;-87
2022/12/20 10:19:56;;;;;;;2.53;1.60;;;;;;;;;;5074800;28;20198;-87
2022/12/20 10:22:27;;;;;;;3.55;1.52;;;;;;;;;;5069058;28;20272;-87
2022/12/20 10:25:00;;;;;;;1.93;1.70;;;;;;;;;;5069659;28;20222;-87
2022/12/20 10:27:38;;;;;;;3.83;1.60;;;;;;;;;;5064048;28;20219;-87
2022/12/20 10:30:07;;;;;;;3.97;1.58;;;;;;;;;;5055620;28;20226;-87
2022/12/20 10:32:36;;;;;;;2.20;1.73;;;;;;;;;;5073740;28;20312;-87
2022/12/20 10:35:18;;;;;;;1.63;1.30;;;;;;;;;;5075811;28;20281;-86
2022/12/20 10:38:00;;;;;;;2.23;1.23;;;;;;;;;;5074641;28;20195;-86
2022/12/20 10:40:30;;;;;;;4.50;1.50;;;;;;;;;;5070238;28;20198;-87
2022/12/20 10:42:57;;;;;;;3.20;1.40;;;;;;;;;;5072352;28;20198;-86
2022/12/20 10:45:35;;;;;;;2.00;1.30;;;;;;;;;;5067107;28;20191;-87
2022/12/20 10:48:03;;;;;;;3.35;1.30;;;;;;;;;;5068188;28;20218;-87
2022/12/20 10:50:30;;;;;;;3.35;1.50;;;;;;;;;;5072455;28;20209;-86
2022/12/20 10:53:12;;;;;;;1.55;1.23;;;;;;;;;;5073025;28;20195;-87
2022/12/20 10:55:41;;;;;;;3.63;1.63;;;;;;;;;;5061164;28;20294;-86
2022/12/20 10:58:14;;;;;;;3.08;1.30;;;;;;;;;;5070515;28;20205;-86
2022/12/20 11:00:41;;;;;;;3.72;1.60;;;;;;;;;;5069258;28;20205;-87
2022/12/20 11:03:14;;;;;;;5.18;1.83;;;;;;;;;;5073771;28;20222;-87
2022/12/20 11:05:42;;;;;;;1.73;1.63;;;;;;;;;;5074220;28;20213;-86
2022/12/20 11:08:14;;;;;;;4.20;1.70;;;;;;;;;;5074621;28;20234;-86
2022/12/20 11:10:43;;;;;;;1.75;1.48;;;;;;;;;;5075274;28;20209;-86
2022/12/20 11:13:20;;;;;;;2.90;1.50;;;;;;;;;;5069518;28;20191;-86
2022/12/20 11:15:49;;;;;;;1.80;1.20;;;;;;;;;;5075545;28;20233;-86
2022/12/20 11:18:20;;;;;;;2.22;1.60;;;;;;;;;;5082578;28;20202;-87
2022/12/20 11:20:52;;;;;;;3.38;1.77;;;;;;;;;;5073700;28;20195;-86
2022/12/20 11:23:24;;;;;;;1.42;1.30;;;;;;;;;;5073294;28;20210;-86
2022/12/20 11:26:00;;;;;;;4.65;1.60;;;;;;;;;;5068095;28;20290;-87
2022/12/20 11:28:37;;;;;;;2.83;1.42;;;;;;;;;;5068925;28;20266;-87
2022/12/20 11:31:10;;;;;;;1.35;1.13;;;;;;;;;;5065775;28;20220;-86
2022/12/20 11:33:53;;;;;;;2.80;1.50;;;;;;;;;;5074110;28;20267;-86
2022/12/20 11:36:26;;;;;;;2.45;1.35;;;;;;;;;;5072302;28;20294;-86
2022/12/20 11:38:59;;;;;;;4.63;1.50;;;;;;;;;;5072114;28;20207;-86
2022/12/20 11:41:31;;;;;;;2.30;1.60;;;;;;;;;;5070622;28;20202;-86
2022/12/20 11:44:06;;;;;;;2.33;1.55;;;;;;;;;;5067851;28;20199;-87
2022/12/20 11:46:50;;;;;;;2.42;1.40;;;;;;;;;;5067644;28;20191;-86
2022/12/20 11:49:27;;;;;;;1.65;1.40;;;;;;;;;;5071445;28;20222;-86
2022/12/20 11:52:05;;;;;;;7.75;4.90;;;;;;;;;;5071335;28;20241;-86
2022/12/20 11:54:36;;;;;;;3.08;1.92;;;;;;;;;;5067027;28;20194;-86
2022/12/20 11:57:12;;;;;;;7.40;5.30;;;;;;;;;;5067926;28;20211;-87
2022/12/20 11:59:42;;;;;;;11.07;7.03;;;;;;;;;;5061870;28;20217;-86
2022/12/20 12:02:12;;;;;;;1.67;1.40;;;;;;;;;;5068576;28;20203;-85
2022/12/20 12:04:42;;;;;;;2.78;1.50;;;;;;;;;;5069656;28;20202;-86
2022/12/20 12:07:12;;;;;;;1.55;1.45;;;;;;;;;;5071573;28;20195;-85
2022/12/20 12:09:42;;;;;;;3.92;1.73;;;;;;;;;;5064267;28;20305;-85
2022/12/20 12:12:12;;;;;;;2.65;1.63;;;;;;;;;;5071356;28;20227;-85
2022/12/20 12:14:44;;;;;;;4.18;1.98;;;;;;;;;;5070841;28;20207;-85
2022/12/20 12:17:14;;;;;;;3.15;1.77;;;;;;;;;;5075046;28;20198;-85
2022/12/20 12:19:44;;;;;;;1.80;1.70;;;;;;;;;;5064414;28;20257;-85
2022/12/20 12:22:14;;;;;;;2.00;1.25;;;;;;;;;;5062737;28;20209;-85
2022/12/20 12:24:44;;;;;;;1.92;1.30;;;;;;;;;;5075393;28;20206;-86
2022/12/20 12:27:15;;;;;;;1.75;1.58;;;;;;;;;;5075067;28;20266;-86
2022/12/20 12:29:43;;;;;;;5.50;3.90;;;;;;;;;;5071735;28;20266;-85
2022/12/20 12:32:15;;;;;;;6.53;3.13;;;;;;;;;;5075021;28;20198;-86
2022/12/20 12:34:48;;;;;;;3.88;1.52;;;;;;;;;;5054869;28;20271;-85
2022/12/20 12:37:33;;;;;;;3.92;1.60;;;;;;;;;;5074360;28;20286;-85
2022/12/20 12:40:27;;;;;;;3.10;1.90;;;;;;;;;;5074249;28;20248;-85
2022/12/20 12:43:10;;;;;;;2.97;1.67;;;;;;;;;;5070055;28;20308;-86
2022/12/20 12:45:42;;;;;;;1.88;1.40;;;;;;;;;;5060594;28;20238;-85
2022/12/20 12:48:18;;;;;;;3.08;1.65;;;;;;;;;;5069407;28;20221;-92
2022/12/20 12:50:50;;;;;;;2.10;1.80;;;;;;;;;;5068570;28;20191;-85
2022/12/20 12:53:24;;;;;;;3.10;1.70;;;;;;;;;;5074005;28;20240;-85
2022/12/20 12:55:58;;;;;;;1.65;1.30;;;;;;;;;;5070412;28;20220;-85
2022/12/20 12:58:33;;;;;;;2.47;1.63;;;;;;;;;;5069526;28;20214;-85
2022/12/20 13:01:04;;;;;;;1.45;1.35;;;;;;;;;;5072667;28;20198;-84
2022/12/20 13:04:07;;;;;;;1.70;1.40;;;;;;;;;;5066004;28;20205;-85
2022/12/20 13:06:54;;;;;;;3.38;1.40;;;;;;;;;;5073574;28;20198;-85
2022/12/20 13:09:23;;;;;;;2.88;1.25;;;;;;;;;;5064291;28;20297;-85
2022/12/20 13:11:50;;;;;;;3.55;1.48;;;;;;;;;;5063545;28;20210;-84
2022/12/20 13:14:36;;;;;;;1.40;1.30;;;;;;;;;;5071850;28;20191;-83
2022/12/20 13:17:19;;;;;;;2.22;1.60;;;;;;;;;;5069782;28;20202;-81
2022/12/20 13:19:51;;;;;;;1.38;1.25;;;;;;;;;;5065930;28;20199;-87
2022/12/20 13:22:21;;;;;;;2.13;1.50;;;;;;;;;;5069053;28;20271;-87
2022/12/20 13:24:54;;;;;;;2.40;1.50;;;;;;;;;;5063140;28;20206;-84
2022/12/20 13:27:26;;;;;;;1.70;1.45;;;;;;;;;;5070180;28;20285;-86
2022/12/20 13:29:56;;;;;;;1.65;1.40;;;;;;;;;;5063276;28;20226;-86
2022/12/20 13:32:42;;;;;;;1.40;1.30;;;;;;;;;;5064321;28;20199;-86
2022/12/20 13:35:24;;;;;;;1.80;1.50;;;;;;;;;;5074468;28;20191;-86
2022/12/20 13:37:54;;;;;;;3.78;1.40;;;;;;;;;;5073255;28;20206;-86
2022/12/20 13:40:24;;;;;;;3.35;1.40;;;;;;;;;;5073382;28;20217;-86
2022/12/20 13:42:52;;;;;;;2.15;1.55;;;;;;;;;;5074075;28;20230;-86
2022/12/20 13:45:20;;;;;;;4.03;1.50;;;;;;;;;;5073912;28;20214;-86
2022/12/20 13:47:50;;;;;;;2.90;1.63;;;;;;;;;;5056591;28;20199;-86
2022/12/20 13:50:29;;;;;;;2.63;1.70;;;;;;;;;;5077430;28;20304;-86
2022/12/20 13:52:58;;;;;;;4.05;1.58;;;;;;;;;;5084746;28;20207;-86
2022/12/20 13:55:34;;;;;;;3.47;1.75;;;;;;;;;;5077786;28;20190;-85
2022/12/20 13:58:05;;;;;;;2.30;2.10;;;;;;;;;;5077844;28;20210;-85
2022/12/20 14:00:33;;;;;;;2.80;1.83;;;;;;;;;;5073732;28;20213;-86
2022/12/20 14:03:01;;;;;;;2.53;1.75;;;;;;;;;;5069476;28;20206;-86
2022/12/20 14:05:33;;;;;;;2.38;1.63;;;;;;;;;;5066262;28;20199;-86
2022/12/20 14:08:03;;;;;;;2.25;1.73;;;;;;;;;;5067026;28;20211;-85
2022/12/20 14:10:31;;;;;;;3.58;1.85;;;;;;;;;;5062627;28;20305;-86
2022/12/20 14:12:59;;;;;;;2.65;1.80;;;;;;;;;;5068553;28;20198;-86
2022/12/20 14:15:27;;;;;;;2.65;1.88;;;;;;;;;;5077432;28;20290;-86
2022/12/20 14:17:55;;;;;;;4.10;3.10;;;;;;;;;;5077074;28;20199;-86
2022/12/20 14:20:24;;;;;;;3.60;1.90;;;;;;;;;;5077564;28;20211;-86
2022/12/20 14:22:55;;;;;;;6.13;1.95;;;;;;;;;;5077448;28;20289;-86
2022/12/20 14:25:28;;;;;;;2.25;1.70;;;;;;;;;;5074028;28;20261;-86
2022/12/20 14:27:56;;;;;;;3.03;1.80;;;;;;;;;;5074841;28;20205;-86
2022/12/20 14:30:31;;;;;;;1.98;1.60;;;;;;;;;;5068052;28;20219;-86
2022/12/20 14:32:59;;;;;;;2.30;1.50;;;;;;;;;;5070235;28;20253;-85
2022/12/20 14:35:26;;;;;;;2.38;1.52;;;;;;;;;;5075957;28;20202;-88
2022/12/20 14:37:55;;;;;;;3.38;1.70;;;;;;;;;;5076679;28;20199;-89
2022/12/20 14:40:23;;;;;;;2.28;1.67;;;;;;;;;;5067870;28;20285;-87
2022/12/20 14:42:51;;;;;;;2.72;1.40;;;;;;;;;;5072160;28;20210;-88
2022/12/20 14:45:20;;;;;;;2.00;1.80;;;;;;;;;;5071688;28;20282;-89
2022/12/20 14:47:49;;;;;;;2.88;1.83;;;;;;;;;;5069649;28;20201;-87
2022/12/20 14:50:18;;;;;;;2.10;1.70;;;;;;;;;;5067629;28;20214;-87
2022/12/20 14:52:46;;;;;;;2.95;1.85;;;;;;;;;;5072107;28;20203;-87
2022/12/20 14:55:17;;;;;;;2.65;1.70;;;;;;;;;;5074224;28;20198;-86
2022/12/20 14:57:45;;;;;;;2.10;1.77;;;;;;;;;;5073894;28;20198;-87
2022/12/20 15:00:16;;;;;;;5.22;1.95;;;;;;;;;;5078412;28;20199;-87
2022/12/20 15:02:47;;;;;;;2.40;2.10;;;;;;;;;;5065082;28;20199;-89
2022/12/20 15:05:32;;;;;;;3.28;1.90;;;;;;;;;;5065049;28;20192;-88
2022/12/20 15:08:10;;;;;;;5.15;3.42;;;;;;;;;;5066283;28;20187;-87
2022/12/20 15:10:37;;;;;;;3.90;2.22;;;;;;;;;;5065029;28;20221;-87
2022/12/20 15:13:05;;;;;;;4.18;2.35;;;;;;;;;;5072623;28;20202;-87